createdAt,value
2019-04-26T00:01:15.796Z,13.90
2019-04-26T00:03:47.222Z,13.90
2019-04-26T00:06:19.989Z,13.90
2019-04-26T00:08:51.131Z,13.90
2019-04-26T00:11:25.289Z,13.90
2019-04-26T00:14:05.116Z,13.90
2019-04-26T00:16:42.354Z,13.90
2019-04-26T00:19:12.193Z,13.90
2019-04-26T00:21:41.939Z,13.90
2019-04-26T00:24:11.775Z,13.90
2019-04-26T00:26:41.436Z,13.90
2019-04-26T00:29:11.366Z,13.80
2019-04-26T00:31:41.141Z,13.80
2019-04-26T00:34:10.977Z,13.80
2019-04-26T00:36:42.855Z,13.80
2019-04-26T00:39:16.145Z,13.80
2019-04-26T00:41:44.904Z,13.80
2019-04-26T00:44:14.910Z,13.80
2019-04-26T00:46:48.658Z,13.70
2019-04-26T00:49:21.247Z,13.70
2019-04-26T00:51:51.344Z,13.70
2019-04-26T00:54:25.550Z,13.70
2019-04-26T00:56:55.956Z,13.70
2019-04-26T00:59:28.274Z,13.70
2019-04-26T01:01:59.433Z,13.70
2019-04-26T01:04:28.883Z,13.70
2019-04-26T01:06:59.425Z,13.70
2019-04-26T01:09:28.847Z,13.70
2019-04-26T01:11:58.316Z,13.60
2019-04-26T01:14:27.790Z,13.60
2019-04-26T01:17:03.748Z,13.60
2019-04-26T01:19:34.355Z,13.60
2019-04-26T01:22:08.837Z,13.60
2019-04-26T01:24:41.035Z,13.60
2019-04-26T01:27:12.763Z,13.60
2019-04-26T01:29:44.541Z,13.60
2019-04-26T01:32:14.918Z,13.70
2019-04-26T01:34:46.576Z,13.60
2019-04-26T01:37:16.381Z,13.60
2019-04-26T01:39:50.648Z,13.60
2019-04-26T01:42:37.460Z,13.60
2019-04-26T01:45:14.951Z,13.60
2019-04-26T01:47:45.909Z,13.60
2019-04-26T01:50:15.947Z,13.60
2019-04-26T01:52:46.245Z,13.60
2019-04-26T01:55:21.515Z,13.60
2019-04-26T01:57:51.023Z,13.60
2019-04-26T02:00:22.909Z,13.60
2019-04-26T02:02:54.873Z,13.60
2019-04-26T02:05:28.040Z,13.60
2019-04-26T02:07:59.383Z,13.50
2019-04-26T02:10:29.196Z,13.50
2019-04-26T02:12:59.934Z,13.50
2019-04-26T02:15:33.517Z,13.50
2019-04-26T02:18:04.195Z,13.40
2019-04-26T02:20:45.066Z,13.40
2019-04-26T02:23:19.039Z,13.40
2019-04-26T02:25:48.535Z,13.30
2019-04-26T02:28:18.196Z,13.30
2019-04-26T02:30:47.964Z,13.30
2019-04-26T02:33:17.781Z,13.30
2019-04-26T02:35:48.856Z,13.30
2019-04-26T02:38:19.111Z,13.30
2019-04-26T02:40:50.298Z,13.20
2019-04-26T02:43:23.169Z,13.20
2019-04-26T02:46:00.343Z,13.20
2019-04-26T02:48:36.114Z,13.20
2019-04-26T02:51:11.238Z,13.20
2019-04-26T02:53:55.638Z,13.20
2019-04-26T02:56:32.164Z,13.20
2019-04-26T02:59:07.517Z,13.20
2019-04-26T03:01:38.723Z,13.10
2019-04-26T03:04:08.810Z,13.10
2019-04-26T03:06:42.774Z,13.20
2019-04-26T03:09:15.708Z,13.10
2019-04-26T03:11:48.775Z,13.10
2019-04-26T03:14:23.430Z,13.10
2019-04-26T03:17:03.128Z,13.10
2019-04-26T03:19:50.748Z,13.00
2019-04-26T03:22:48.598Z,13.00
2019-04-26T03:25:26.843Z,13.00
2019-04-26T03:28:02.738Z,13.00
2019-04-26T03:30:59.810Z,13.00
2019-04-26T03:33:58.152Z,12.90
2019-04-26T03:37:20.443Z,12.90
2019-04-26T03:40:02.418Z,12.90
2019-04-26T03:42:40.674Z,12.90
2019-04-26T03:45:39.087Z,12.80
2019-04-26T03:48:31.051Z,12.80
2019-04-26T03:51:06.215Z,12.80
2019-04-26T03:53:45.820Z,12.70
2019-04-26T03:56:20.106Z,12.70
2019-04-26T03:59:14.911Z,12.70
2019-04-26T04:02:07.483Z,12.70
2019-04-26T04:04:56.235Z,12.70
2019-04-26T04:07:39.078Z,12.60
2019-04-26T04:10:20.647Z,12.60
2019-04-26T04:12:54.806Z,12.60
2019-04-26T04:15:33.306Z,12.60
2019-04-26T04:18:09.704Z,12.60
2019-04-26T04:20:49.705Z,12.50
2019-04-26T04:23:25.419Z,12.50
2019-04-26T04:25:58.799Z,12.50
2019-04-26T04:28:39.839Z,12.50
2019-04-26T04:31:31.037Z,12.50
2019-04-26T04:34:05.981Z,12.50
2019-04-26T04:36:46.897Z,12.50
2019-04-26T04:39:30.564Z,12.50
2019-04-26T04:42:23.742Z,12.50
2019-04-26T04:45:30.778Z,12.50
2019-04-26T04:48:19.738Z,12.50
2019-04-26T04:51:18.336Z,12.40
2019-04-26T04:54:08.607Z,12.40
2019-04-26T04:56:55.889Z,12.40
2019-04-26T04:59:44.509Z,12.40
2019-04-26T05:02:26.775Z,12.40
2019-04-26T05:05:21.794Z,12.40
2019-04-26T05:08:23.265Z,12.40
2019-04-26T05:11:07.978Z,12.40
2019-04-26T05:13:40.481Z,12.40
2019-04-26T05:16:37.182Z,12.40
2019-04-26T05:19:28.428Z,12.30
2019-04-26T05:22:29.530Z,12.30
2019-04-26T05:25:40.281Z,12.30
2019-04-26T05:28:29.142Z,12.30
2019-04-26T05:31:09.001Z,12.30
2019-04-26T05:33:50.398Z,12.40
2019-04-26T05:36:38.027Z,12.40
2019-04-26T05:39:10.563Z,12.40
2019-04-26T05:42:25.050Z,12.40
2019-04-26T05:45:44.183Z,12.50
2019-04-26T05:48:27.371Z,12.50
2019-04-26T05:51:09.961Z,12.50
2019-04-26T05:54:00.092Z,12.50
2019-04-26T05:56:56.277Z,12.50
2019-04-26T05:59:33.231Z,12.60
2019-04-26T06:02:24.052Z,12.60
2019-04-26T06:05:16.555Z,12.60
2019-04-26T06:07:56.407Z,12.60
2019-04-26T06:10:48.578Z,12.70
2019-04-26T06:13:31.851Z,12.80
2019-04-26T06:16:17.711Z,12.80
2019-04-26T06:18:57.537Z,12.80
2019-04-26T06:21:29.984Z,12.80
2019-04-26T06:24:08.563Z,12.90
2019-04-26T06:26:48.317Z,12.90
2019-04-26T06:29:38.821Z,12.90
2019-04-26T06:32:28.799Z,13.00
2019-04-26T06:35:01.500Z,13.00
2019-04-26T06:37:44.128Z,13.00
2019-04-26T06:40:42.003Z,13.00
2019-04-26T06:43:19.369Z,13.00
2019-04-26T06:46:18.896Z,13.00
2019-04-26T06:49:07.663Z,13.00
2019-04-26T06:51:52.110Z,13.00
2019-04-26T06:54:43.580Z,13.00
2019-04-26T06:57:27.160Z,13.10
2019-04-26T07:00:13.438Z,13.20
2019-04-26T07:03:05.688Z,13.30
2019-04-26T07:05:38.561Z,13.50
2019-04-26T07:08:21.125Z,13.60
2019-04-26T07:11:00.683Z,13.50
2019-04-26T07:13:46.820Z,13.60
2019-04-26T07:16:34.603Z,13.70
2019-04-26T07:19:16.972Z,13.80
2019-04-26T07:22:10.947Z,13.80
2019-04-26T07:25:19.851Z,13.90
2019-04-26T07:28:09.686Z,13.80
2019-04-26T07:30:56.715Z,13.70
2019-04-26T07:33:32.487Z,13.70
2019-04-26T07:36:26.492Z,13.80
2019-04-26T07:39:19.682Z,13.80
2019-04-26T07:42:21.317Z,13.80
2019-04-26T07:45:10.329Z,13.90
2019-04-26T07:48:17.285Z,13.90
2019-04-26T07:51:17.290Z,13.90
2019-04-26T07:53:52.719Z,14.00
2019-04-26T07:56:58.476Z,14.10
2019-04-26T07:59:59.779Z,14.10
2019-04-26T08:02:49.586Z,14.20
2019-04-26T08:05:34.532Z,14.20
2019-04-26T08:08:10.736Z,14.20
2019-04-26T08:10:44.339Z,14.20
2019-04-26T08:13:18.844Z,14.30
2019-04-26T08:15:59.094Z,14.40
2019-04-26T08:18:39.084Z,14.50
2019-04-26T08:21:31.724Z,14.50
2019-04-26T08:24:14.019Z,14.60
2019-04-26T08:26:46.742Z,14.60
2019-04-26T08:29:19.119Z,14.80
2019-04-26T08:31:53.531Z,14.90
2019-04-26T08:34:33.749Z,15.00
2019-04-26T08:37:15.102Z,15.00
2019-04-26T08:39:51.855Z,15.00
2019-04-26T08:42:23.753Z,15.00
2019-04-26T08:44:59.066Z,14.90
2019-04-26T08:47:53.417Z,14.90
2019-04-26T08:50:24.084Z,15.00
2019-04-26T08:52:58.517Z,15.20
2019-04-26T08:55:29.495Z,15.30
2019-04-26T08:58:03.694Z,15.30
2019-04-26T09:00:36.921Z,15.40
2019-04-26T09:03:13.225Z,15.40
2019-04-26T09:05:51.356Z,15.50
2019-04-26T09:08:24.516Z,15.60
2019-04-26T09:10:57.088Z,15.60
2019-04-26T09:13:30.071Z,15.60
2019-04-26T09:16:08.755Z,15.60
2019-04-26T09:18:43.399Z,15.60
2019-04-26T09:21:09.732Z,15.70
2019-04-26T09:23:57.166Z,15.90
2019-04-26T09:26:46.703Z,16.00
2019-04-26T09:29:32.292Z,16.00
2019-04-26T09:32:24.148Z,16.00
2019-04-26T09:34:52.734Z,16.10
2019-04-26T09:37:22.266Z,16.10
2019-04-26T09:39:54.507Z,16.30
2019-04-26T09:42:31.885Z,16.40
2019-04-26T09:45:19.238Z,16.60
2019-04-26T09:47:50.458Z,16.70
2019-04-26T09:50:39.730Z,16.80
2019-04-26T09:53:09.432Z,16.80
2019-04-26T09:55:39.033Z,17.00
2019-04-26T09:58:08.823Z,17.10
2019-04-26T10:00:38.755Z,17.10
2019-04-26T10:03:10.752Z,17.10
2019-04-26T10:05:41.348Z,17.00
2019-04-26T10:08:13.083Z,17.00
2019-04-26T10:10:42.147Z,17.10
2019-04-26T10:13:31.566Z,17.30
2019-04-26T10:16:04.207Z,17.60
2019-04-26T10:18:34.365Z,17.70
2019-04-26T10:21:04.303Z,17.50
2019-04-26T10:23:33.952Z,17.50
2019-04-26T10:26:05.140Z,17.60
2019-04-26T10:28:34.735Z,17.70
2019-04-26T10:31:04.475Z,17.90
2019-04-26T10:33:36.523Z,18.10
2019-04-26T10:36:05.094Z,18.10
2019-04-26T10:38:37.637Z,18.30
2019-04-26T10:41:07.643Z,18.20
2019-04-26T10:43:37.108Z,18.20
2019-04-26T10:46:31.644Z,18.20
2019-04-26T10:49:08.516Z,18.40
2019-04-26T10:51:38.623Z,18.50
2019-04-26T10:54:08.638Z,18.40
2019-04-26T10:56:42.882Z,18.30
2019-04-26T10:59:22.756Z,18.20
2019-04-26T11:01:52.439Z,18.30
2019-04-26T11:04:21.894Z,18.30
2019-04-26T11:06:51.512Z,18.30
2019-04-26T11:09:21.102Z,18.30
2019-04-26T11:11:50.669Z,18.50
2019-04-26T11:14:22.647Z,18.50
2019-04-26T11:16:52.664Z,18.50
2019-04-26T11:19:22.577Z,18.60
2019-04-26T11:21:54.819Z,18.70
2019-04-26T11:24:23.531Z,18.70
2019-04-26T11:26:53.071Z,18.70
2019-04-26T11:29:25.015Z,18.80
2019-04-26T11:31:54.257Z,18.90
2019-04-26T11:34:25.171Z,19.10
2019-04-26T11:36:56.275Z,19.40
2019-04-26T11:39:28.137Z,19.50
2019-04-26T11:41:57.285Z,19.30
2019-04-26T11:44:28.453Z,19.10
2019-04-26T11:46:59.399Z,19.20
2019-04-26T11:49:29.156Z,19.40
2019-04-26T11:52:02.679Z,19.60
2019-04-26T11:54:29.940Z,19.70
2019-04-26T11:57:00.512Z,19.90
2019-04-26T11:59:30.566Z,20.00
2019-04-26T12:02:01.292Z,20.20
2019-04-26T12:04:53.704Z,20.40
2019-04-26T12:07:23.212Z,20.40
2019-04-26T12:10:05.845Z,20.50
2019-04-26T12:12:34.816Z,20.60
2019-04-26T12:15:08.618Z,20.60
2019-04-26T12:17:36.892Z,20.60
2019-04-26T12:20:06.767Z,20.70
2019-04-26T12:22:39.365Z,20.80
2019-04-26T12:25:08.498Z,20.70
2019-04-26T12:27:38.061Z,20.70
2019-04-26T12:30:09.858Z,20.70
2019-04-26T12:32:39.776Z,20.60
2019-04-26T12:35:09.441Z,20.40
2019-04-26T12:37:38.906Z,20.30
2019-04-26T12:40:11.238Z,20.20
2019-04-26T12:42:43.434Z,20.10
2019-04-26T12:45:22.006Z,20.00
2019-04-26T12:47:56.317Z,20.00
2019-04-26T12:50:29.508Z,20.20
2019-04-26T12:52:57.386Z,20.30
2019-04-26T12:55:26.909Z,20.40
2019-04-26T12:57:59.463Z,20.20
2019-04-26T13:00:33.190Z,20.20
2019-04-26T13:03:04.409Z,20.10
2019-04-26T13:05:34.174Z,20.00
2019-04-26T13:08:03.851Z,19.80
2019-04-26T13:10:51.270Z,19.80
2019-04-26T13:13:40.057Z,20.00
2019-04-26T13:16:11.574Z,20.20
2019-04-26T13:18:45.298Z,20.20
2019-04-26T13:21:12.817Z,20.10
2019-04-26T13:23:42.324Z,20.10
2019-04-26T13:26:11.765Z,20.00
2019-04-26T13:28:41.801Z,20.00
2019-04-26T13:31:11.309Z,19.90
2019-04-26T13:33:40.748Z,19.90
2019-04-26T13:36:10.216Z,19.80
2019-04-26T13:38:43.684Z,19.70
2019-04-26T13:41:10.759Z,19.70
2019-04-26T13:43:40.201Z,19.70
2019-04-26T13:46:27.582Z,19.70
2019-04-26T13:48:58.697Z,19.70
2019-04-26T13:51:29.809Z,19.70
2019-04-26T13:53:59.258Z,19.60
2019-04-26T13:56:32.145Z,19.60
2019-04-26T13:58:59.956Z,19.50
2019-04-26T14:01:29.575Z,19.50
2019-04-26T14:04:02.391Z,19.60
2019-04-26T14:06:30.535Z,19.80
2019-04-26T14:09:02.872Z,20.20
2019-04-26T14:11:32.786Z,20.40
2019-04-26T14:14:02.203Z,20.50
2019-04-26T14:16:31.725Z,20.50
2019-04-26T14:19:01.259Z,20.40
2019-04-26T14:21:33.130Z,20.50
2019-04-26T14:24:19.636Z,20.50
2019-04-26T14:26:56.993Z,20.60
2019-04-26T14:29:28.417Z,20.70
2019-04-26T14:31:57.833Z,20.70
2019-04-26T14:34:27.547Z,20.70
2019-04-26T14:37:06.222Z,20.60
2019-04-26T14:39:38.299Z,20.50
2019-04-26T14:41:59.171Z,20.40
2019-04-26T14:44:31.264Z,20.40
2019-04-26T14:47:12.677Z,20.40
2019-04-26T14:49:39.004Z,20.50
2019-04-26T14:52:02.269Z,20.70
2019-04-26T14:54:31.671Z,20.90
2019-04-26T14:57:07.357Z,21.10
2019-04-26T14:59:44.209Z,21.10
2019-04-26T15:02:23.053Z,21.10
2019-04-26T15:05:02.939Z,21.10
2019-04-26T15:07:32.463Z,21.10
2019-04-26T15:10:02.878Z,21.10
2019-04-26T15:12:32.466Z,21.10
2019-04-26T15:15:04.228Z,21.30
2019-04-26T15:17:34.659Z,21.50
2019-04-26T15:20:07.236Z,21.50
2019-04-26T15:22:36.637Z,21.60
2019-04-26T15:25:07.660Z,21.60
2019-04-26T15:27:38.307Z,21.50
2019-04-26T15:30:08.357Z,21.50
2019-04-26T15:32:37.882Z,21.40
2019-04-26T15:35:07.664Z,21.30
2019-04-26T15:37:37.343Z,21.20
2019-04-26T15:40:31.928Z,21.20
2019-04-26T15:43:14.230Z,21.30
2019-04-26T15:45:40.353Z,21.30
2019-04-26T15:48:20.238Z,21.30
2019-04-26T15:50:52.012Z,21.30
2019-04-26T15:53:23.856Z,21.30
2019-04-26T15:55:52.495Z,21.30
2019-04-26T15:58:21.970Z,21.30
2019-04-26T16:00:52.846Z,21.40
2019-04-26T16:03:25.098Z,21.20
2019-04-26T16:05:54.936Z,21.20
2019-04-26T16:08:25.884Z,21.10
2019-04-26T16:10:55.478Z,21.00
2019-04-26T16:13:24.907Z,21.10
2019-04-26T16:15:54.376Z,21.00
2019-04-26T16:18:23.862Z,20.90
2019-04-26T16:20:53.497Z,20.90
2019-04-26T16:23:24.299Z,21.00
2019-04-26T16:25:54.883Z,21.10
2019-04-26T16:28:30.854Z,21.10
2019-04-26T16:31:18.375Z,21.20
2019-04-26T16:34:06.608Z,21.20
2019-04-26T16:36:32.336Z,21.20
2019-04-26T16:39:06.335Z,21.20
2019-04-26T16:41:38.226Z,21.20
2019-04-26T16:44:09.001Z,21.20
2019-04-26T16:46:38.644Z,21.20
2019-04-26T16:49:12.336Z,21.20
2019-04-26T16:51:43.556Z,21.20
2019-04-26T16:54:20.978Z,21.20
2019-04-26T16:56:44.326Z,21.20
2019-04-26T16:59:22.092Z,21.20
2019-04-26T17:01:47.335Z,21.10
2019-04-26T17:04:20.001Z,21.10
2019-04-26T17:06:48.779Z,21.10
2019-04-26T17:09:18.350Z,21.10
2019-04-26T17:11:47.838Z,21.00
2019-04-26T17:14:18.843Z,21.00
2019-04-26T17:16:48.265Z,20.90
2019-04-26T17:19:19.893Z,20.90
2019-04-26T17:22:00.169Z,20.90
2019-04-26T17:24:43.781Z,20.90
2019-04-26T17:27:14.681Z,20.80
2019-04-26T17:29:44.150Z,20.80
2019-04-26T17:32:17.174Z,20.80
2019-04-26T17:34:44.811Z,20.70
2019-04-26T17:37:17.213Z,20.60
2019-04-26T17:39:52.139Z,20.50
2019-04-26T17:42:18.878Z,20.40
2019-04-26T17:44:51.570Z,20.30
2019-04-26T17:47:20.890Z,20.30
2019-04-26T17:49:52.361Z,20.20
2019-04-26T17:52:21.334Z,20.20
2019-04-26T17:54:52.051Z,20.20
2019-04-26T17:57:33.473Z,20.20
2019-04-26T18:00:06.462Z,20.20
2019-04-26T18:02:40.275Z,20.20
2019-04-26T18:05:03.219Z,20.10
2019-04-26T18:07:41.407Z,20.10
2019-04-26T18:10:06.113Z,20.00
2019-04-26T18:12:39.149Z,20.00
2019-04-26T18:15:10.315Z,20.00
2019-04-26T18:17:40.399Z,19.90
2019-04-26T18:20:18.819Z,19.90
2019-04-26T18:22:52.609Z,19.80
2019-04-26T18:25:23.528Z,19.70
2019-04-26T18:27:54.975Z,19.60
2019-04-26T18:30:26.255Z,19.60
2019-04-26T18:32:55.833Z,19.50
2019-04-26T18:35:29.543Z,19.50
2019-04-26T18:38:00.357Z,19.40
2019-04-26T18:40:35.371Z,19.40
2019-04-26T18:43:00.965Z,19.30
2019-04-26T18:45:30.385Z,19.30
2019-04-26T18:48:04.629Z,19.30
2019-04-26T18:50:36.366Z,19.20
2019-04-26T18:53:15.173Z,19.20
2019-04-26T18:55:46.290Z,19.20
2019-04-26T18:58:15.725Z,19.20
2019-04-26T19:00:45.317Z,19.20
2019-04-26T19:03:16.035Z,19.10
2019-04-26T19:05:45.680Z,19.10
2019-04-26T19:08:15.245Z,19.00
2019-04-26T19:10:44.779Z,19.00
2019-04-26T19:13:30.942Z,18.90
2019-04-26T19:16:10.679Z,18.90
2019-04-26T19:18:55.993Z,18.90
2019-04-26T19:21:43.531Z,18.80
2019-04-26T19:24:19.808Z,18.80
2019-04-26T19:26:49.915Z,18.80
2019-04-26T19:29:18.681Z,18.70
2019-04-26T19:31:47.788Z,18.70
2019-04-26T19:34:17.869Z,18.60
2019-04-26T19:36:48.392Z,18.60
2019-04-26T19:39:22.799Z,18.50
2019-04-26T19:41:57.615Z,18.50
2019-04-26T19:44:24.426Z,18.40
2019-04-26T19:47:04.418Z,18.40
2019-04-26T19:49:54.029Z,18.30
2019-04-26T19:52:25.701Z,18.30
2019-04-26T19:54:56.902Z,18.20
2019-04-26T19:57:33.374Z,18.20
2019-04-26T20:00:03.748Z,18.10
2019-04-26T20:02:39.041Z,18.00
2019-04-26T20:05:07.694Z,18.00
2019-04-26T20:07:37.433Z,17.90
2019-04-26T20:10:07.173Z,17.80
2019-04-26T20:12:38.173Z,17.80
2019-04-26T20:15:08.204Z,17.80
2019-04-26T20:17:37.814Z,17.70
2019-04-26T20:20:18.939Z,17.70
2019-04-26T20:22:38.676Z,17.60
2019-04-26T20:25:08.349Z,17.60
2019-04-26T20:27:37.920Z,17.50
2019-04-26T20:30:09.918Z,17.50
2019-04-26T20:32:44.370Z,17.50
2019-04-26T20:35:19.773Z,17.40
2019-04-26T20:37:49.991Z,17.40
2019-04-26T20:40:24.697Z,17.30
2019-04-26T20:42:51.195Z,17.30
2019-04-26T20:45:23.006Z,17.20
2019-04-26T20:47:55.653Z,17.20
2019-04-26T20:50:23.961Z,17.10
2019-04-26T20:53:00.427Z,17.10
2019-04-26T20:55:30.334Z,17.10
2019-04-26T20:57:55.792Z,17.00
2019-04-26T21:00:25.523Z,17.00
2019-04-26T21:03:01.239Z,16.90
2019-04-26T21:05:28.271Z,16.80
2019-04-26T21:07:59.855Z,16.80
2019-04-26T21:10:29.529Z,16.80
2019-04-26T21:12:59.046Z,16.80
2019-04-26T21:15:28.627Z,16.70
2019-04-26T21:18:02.785Z,16.70
2019-04-26T21:20:36.239Z,16.60
2019-04-26T21:23:03.835Z,16.60
2019-04-26T21:25:35.559Z,16.60
2019-04-26T21:28:24.030Z,16.50
2019-04-26T21:30:57.972Z,16.50
2019-04-26T21:33:35.800Z,16.40
2019-04-26T21:36:07.288Z,16.40
2019-04-26T21:38:45.250Z,16.30
2019-04-26T21:41:19.298Z,16.30
2019-04-26T21:43:48.908Z,16.20
2019-04-26T21:46:19.279Z,16.20
2019-04-26T21:48:49.696Z,16.10
2019-04-26T21:51:19.122Z,16.10
2019-04-26T21:53:48.608Z,16.10
2019-04-26T21:56:18.057Z,16.00
2019-04-26T21:58:47.500Z,16.00
2019-04-26T22:01:20.412Z,16.00
2019-04-26T22:03:54.473Z,15.90
2019-04-26T22:06:26.788Z,15.90
2019-04-26T22:09:04.794Z,15.80
2019-04-26T22:11:38.409Z,15.80
2019-04-26T22:14:19.260Z,15.80
2019-04-26T22:16:45.507Z,15.80
2019-04-26T22:19:21.649Z,15.80
2019-04-26T22:22:09.219Z,15.70
2019-04-26T22:24:40.097Z,15.70
2019-04-26T22:27:09.625Z,15.70
2019-04-26T22:29:39.033Z,15.70
2019-04-26T22:32:11.522Z,15.60
2019-04-26T22:34:42.796Z,15.60
2019-04-26T22:37:12.902Z,15.50
2019-04-26T22:39:44.330Z,15.50
2019-04-26T22:42:14.216Z,15.40
2019-04-26T22:45:03.337Z,15.40
2019-04-26T22:47:50.741Z,15.40
2019-04-26T22:50:28.931Z,15.30
2019-04-26T22:52:58.743Z,15.30
2019-04-26T22:55:28.197Z,15.20
2019-04-26T22:57:59.215Z,15.20
2019-04-26T23:00:30.828Z,15.10
2019-04-26T23:03:03.724Z,15.10
2019-04-26T23:05:39.042Z,15.10
2019-04-26T23:08:06.717Z,15.00
2019-04-26T23:10:40.742Z,15.00
2019-04-26T23:13:20.888Z,15.00
2019-04-26T23:16:00.638Z,14.90
2019-04-26T23:18:33.463Z,14.90
2019-04-26T23:21:11.938Z,14.90
2019-04-26T23:23:40.987Z,14.90
2019-04-26T23:26:12.674Z,14.80
2019-04-26T23:28:43.470Z,14.70
2019-04-26T23:31:15.830Z,14.70
2019-04-26T23:33:47.118Z,14.60
2019-04-26T23:36:18.449Z,14.60
2019-04-26T23:38:50.798Z,14.50
2019-04-26T23:41:20.222Z,14.50
2019-04-26T23:43:56.540Z,14.50
2019-04-26T23:46:25.708Z,14.50
2019-04-26T23:48:56.767Z,14.40
2019-04-26T23:51:26.355Z,14.40
2019-04-26T23:53:57.749Z,14.40
2019-04-26T23:56:28.732Z,14.40
2019-04-26T23:58:58.481Z,14.40
